sensor_id;sensor_type;location;lat;lon;timestamp;pressure;altitude;pressure_sealevel;temperature;humidity
67697;BME280;54486;51.442;6.778;2023-02-22T00:01:41;101378.47;;;7.28;100.00
67697;BME280;54486;51.442;6.778;2023-02-22T00:04:17;101376.66;;;7.21;100.00
67697;BME280;54486;51.442;6.778;2023-02-22T00:06:47;101387.06;;;7.21;100.00
67697;BME280;54486;51.442;6.778;2023-02-22T00:09:17;101376.66;;;7.21;100.00
67697;BME280;54486;51.442;6.778;2023-02-22T00:11:47;101377.41;;;7.15;100.00
67697;BME280;54486;51.442;6.778;2023-02-22T00:14:15;101388.59;;;7.10;100.00
67697;BME280;54486;51.442;6.778;2023-02-22T00:16:45;101375.50;;;7.04;100.00
67697;BME280;54486;51.442;6.778;2023-02-22T00:19:13;101373.66;;;6.95;100.00
67697;BME280;54486;51.442;6.778;2023-02-22T00:21:39;101371.78;;;6.88;100.00
67697;BME280;54486;51.442;6.778;2023-02-22T00:24:06;101370.75;;;6.78;100.00
67697;BME280;54486;51.442;6.778;2023-02-22T00:26:50;101372.56;;;6.82;100.00
67697;BME280;54486;51.442;6.778;2023-02-22T00:29:17;101368.09;;;6.75;100.00
67697;BME280;54486;51.442;6.778;2023-02-22T00:31:44;101370.56;;;6.66;100.00
67697;BME280;54486;51.442;6.778;2023-02-22T00:34:12;101369.63;;;6.63;100.00
67697;BME280;54486;51.442;6.778;2023-02-22T00:36:44;101372.16;;;6.61;100.00
67697;BME280;54486;51.442;6.778;2023-02-22T00:39:11;101364.16;;;6.49;100.00
67697;BME280;54486;51.442;6.778;2023-02-22T00:41:38;101358.03;;;6.44;100.00
67697;BME280;54486;51.442;6.778;2023-02-22T00:44:05;101363.13;;;6.38;100.00
67697;BME280;54486;51.442;6.778;2023-02-22T00:46:33;101360.44;;;6.35;100.00
67697;BME280;54486;51.442;6.778;2023-02-22T00:49:05;101359.53;;;6.33;100.00
67697;BME280;54486;51.442;6.778;2023-02-22T00:51:33;101352.59;;;6.32;100.00
67697;BME280;54486;51.442;6.778;2023-02-22T00:54:00;101347.19;;;6.20;100.00
67697;BME280;54486;51.442;6.778;2023-02-22T00:56:27;101348.13;;;6.22;100.00
67697;BME280;54486;51.442;6.778;2023-02-22T00:58:54;101348.81;;;6.15;100.00
67697;BME280;54486;51.442;6.778;2023-02-22T01:01:24;101346.94;;;6.08;100.00
67697;BME280;54486;51.442;6.778;2023-02-22T01:03:51;101345.13;;;6.04;100.00
67697;BME280;54486;51.442;6.778;2023-02-22T01:06:18;101341.59;;;5.99;100.00
67697;BME280;54486;51.442;6.778;2023-02-22T01:08:46;101344.06;;;5.94;100.00
67697;BME280;54486;51.442;6.778;2023-02-22T01:11:16;101344.97;;;5.95;100.00
67697;BME280;54486;51.442;6.778;2023-02-22T01:13:43;101340.72;;;5.97;100.00
67697;BME280;54486;51.442;6.778;2023-02-22T01:16:13;101337.06;;;5.87;100.00
67697;BME280;54486;51.442;6.778;2023-02-22T01:18:40;101340.31;;;5.80;100.00
67697;BME280;54486;51.442;6.778;2023-02-22T01:21:07;101338.44;;;5.73;100.00
67697;BME280;54486;51.442;6.778;2023-02-22T01:23:35;101337.44;;;5.66;100.00
67697;BME280;54486;51.442;6.778;2023-02-22T01:26:03;101330.44;;;5.62;100.00
67697;BME280;54486;51.442;6.778;2023-02-22T01:28:32;101339.84;;;5.59;100.00
67697;BME280;54486;51.442;6.778;2023-02-22T01:30:59;101331.28;;;5.61;100.00
67697;BME280;54486;51.442;6.778;2023-02-22T01:33:27;101332.88;;;5.55;100.00
67697;BME280;54486;51.442;6.778;2023-02-22T01:35:54;101331.06;;;5.52;100.00
67697;BME280;54486;51.442;6.778;2023-02-22T01:38:21;101326.69;;;5.48;100.00
67697;BME280;54486;51.442;6.778;2023-02-22T01:40:48;101328.34;;;5.46;100.00
67697;BME280;54486;51.442;6.778;2023-02-22T01:45:47;101318.81;;;5.44;100.00
67697;BME280;54486;51.442;6.778;2023-02-22T01:48:19;101313.63;;;5.44;100.00
67697;BME280;54486;51.442;6.778;2023-02-22T01:50:56;101310.03;;;5.37;100.00
67697;BME280;54486;51.442;6.778;2023-02-22T01:53:30;101302.13;;;5.31;100.00
67697;BME280;54486;51.442;6.778;2023-02-22T01:55:58;101310.72;;;5.30;100.00
67697;BME280;54486;51.442;6.778;2023-02-22T01:58:26;101312.34;;;5.25;100.00
67697;BME280;54486;51.442;6.778;2023-02-22T02:00:55;101303.69;;;5.23;100.00
67697;BME280;54486;51.442;6.778;2023-02-22T02:03:33;101305.41;;;5.24;100.00
67697;BME280;54486;51.442;6.778;2023-02-22T02:06:02;101300.09;;;5.18;100.00
67697;BME280;54486;51.442;6.778;2023-02-22T02:11:29;101287.88;;;5.11;100.00
67697;BME280;54486;51.442;6.778;2023-02-22T02:13:57;101282.75;;;5.14;100.00
67697;BME280;54486;51.442;6.778;2023-02-22T02:16:36;101283.66;;;5.14;100.00
67697;BME280;54486;51.442;6.778;2023-02-22T02:19:17;101277.53;;;5.11;100.00
67697;BME280;54486;51.442;6.778;2023-02-22T02:21:53;101280.03;;;5.06;100.00
67697;BME280;54486;51.442;6.778;2023-02-22T02:27:12;101290.94;;;4.95;100.00
67697;BME280;54486;51.442;6.778;2023-02-22T02:42:31;101272.19;;;4.67;100.00
67697;BME280;54486;51.442;6.778;2023-02-22T02:45:12;101264.28;;;4.61;100.00
67697;BME280;54486;51.442;6.778;2023-02-22T02:47:43;101271.22;;;4.62;100.00
67697;BME280;54486;51.442;6.778;2023-02-22T02:50:23;101263.53;;;4.65;100.00
67697;BME280;54486;51.442;6.778;2023-02-22T02:52:52;101267.78;;;4.63;100.00
67697;BME280;54486;51.442;6.778;2023-02-22T02:55:20;101264.50;;;4.70;100.00
67697;BME280;54486;51.442;6.778;2023-02-22T02:57:47;101266.34;;;4.74;100.00
67697;BME280;54486;51.442;6.778;2023-02-22T03:00:17;101261.03;;;4.68;100.00
67697;BME280;54486;51.442;6.778;2023-02-22T03:02:54;101247.38;;;4.75;100.00
67697;BME280;54486;51.442;6.778;2023-02-22T03:05:34;101248.47;;;4.84;100.00
67697;BME280;54486;51.442;6.778;2023-02-22T03:08:15;101240.81;;;4.88;100.00
67697;BME280;54486;51.442;6.778;2023-02-22T03:16:20;101246.22;;;4.99;100.00
67697;BME280;54486;51.442;6.778;2023-02-22T03:21:32;101240.28;;;5.03;100.00
67697;BME280;54486;51.442;6.778;2023-02-22T03:24:07;101235.13;;;5.04;100.00
67697;BME280;54486;51.442;6.778;2023-02-22T03:26:40;101227.34;;;5.03;100.00
67697;BME280;54486;51.442;6.778;2023-02-22T03:29:08;101227.34;;;5.03;100.00
67697;BME280;54486;51.442;6.778;2023-02-22T03:31:38;101231.72;;;5.05;100.00
67697;BME280;54486;51.442;6.778;2023-02-22T03:34:12;101229.13;;;5.05;100.00
67697;BME280;54486;51.442;6.778;2023-02-22T03:36:46;101228.31;;;5.06;100.00
67697;BME280;54486;51.442;6.778;2023-02-22T03:39:14;101225.78;;;5.11;100.00
67697;BME280;54486;51.442;6.778;2023-02-22T03:41:46;101224.13;;;5.13;100.00
67697;BME280;54486;51.442;6.778;2023-02-22T03:44:21;101229.38;;;5.16;100.00
67697;BME280;54486;51.442;6.778;2023-02-22T03:46:51;101224.34;;;5.22;100.00
67697;BME280;54486;51.442;6.778;2023-02-22T03:49:28;101222.69;;;5.27;100.00
67697;BME280;54486;51.442;6.778;2023-02-22T03:52:01;101225.28;;;5.25;100.00
67697;BME280;54486;51.442;6.778;2023-02-22T03:54:29;101227.75;;;5.21;100.00
67697;BME280;54486;51.442;6.778;2023-02-22T03:57:13;101232.84;;;5.16;100.00
67697;BME280;54486;51.442;6.778;2023-02-22T03:59:45;101230.28;;;5.18;100.00
67697;BME280;54486;51.442;6.778;2023-02-22T04:02:12;101226.03;;;5.20;100.00
67697;BME280;54486;51.442;6.778;2023-02-22T04:04:39;101232.03;;;5.19;100.00
67697;BME280;54486;51.442;6.778;2023-02-22T04:07:06;101226.88;;;5.20;100.00
67697;BME280;54486;51.442;6.778;2023-02-22T04:09:33;101236.38;;;5.20;100.00
67697;BME280;54486;51.442;6.778;2023-02-22T04:12:01;101233.91;;;5.26;100.00
67697;BME280;54486;51.442;6.778;2023-02-22T04:14:28;101235.69;;;5.30;100.00
67697;BME280;54486;51.442;6.778;2023-02-22T04:16:55;101235.75;;;5.31;100.00
67697;BME280;54486;51.442;6.778;2023-02-22T04:19:22;101230.63;;;5.34;100.00
67697;BME280;54486;51.442;6.778;2023-02-22T04:21:49;101241.94;;;5.38;100.00
67697;BME280;54486;51.442;6.778;2023-02-22T04:24:20;101235.00;;;5.37;100.00
67697;BME280;54486;51.442;6.778;2023-02-22T04:26:47;101231.63;;;5.41;100.00
67697;BME280;54486;51.442;6.778;2023-02-22T04:29:14;101221.41;;;5.47;100.00
67697;BME280;54486;51.442;6.778;2023-02-22T04:31:41;101223.22;;;5.51;100.00
67697;BME280;54486;51.442;6.778;2023-02-22T04:34:08;101218.81;;;5.47;100.00
67697;BME280;54486;51.442;6.778;2023-02-22T04:36:35;101211.06;;;5.47;100.00
67697;BME280;54486;51.442;6.778;2023-02-22T04:39:08;101212.81;;;5.48;100.00
67697;BME280;54486;51.442;6.778;2023-02-22T04:41:35;101204.94;;;5.42;100.00
67697;BME280;54486;51.442;6.778;2023-02-22T04:44:04;101202.41;;;5.45;100.00
67697;BME280;54486;51.442;6.778;2023-02-22T04:46:34;101204.13;;;5.46;100.00
67697;BME280;54486;51.442;6.778;2023-02-22T04:49:04;101195.41;;;5.41;100.00
67697;BME280;54486;51.442;6.778;2023-02-22T04:51:34;101202.13;;;5.33;100.00
67697;BME280;54486;51.442;6.778;2023-02-22T04:54:03;101193.66;;;5.40;100.00
67697;BME280;54486;51.442;6.778;2023-02-22T04:56:30;101192.09;;;5.48;100.00
67697;BME280;54486;51.442;6.778;2023-02-22T04:58:59;101193.00;;;5.49;100.00
67697;BME280;54486;51.442;6.778;2023-02-22T05:01:32;101193.88;;;5.52;100.00
67697;BME280;54486;51.442;6.778;2023-02-22T05:04:01;101188.72;;;5.52;100.00
67697;BME280;54486;51.442;6.778;2023-02-22T05:06:31;101188.41;;;5.37;100.00
67697;BME280;54486;51.442;6.778;2023-02-22T05:08:58;101180.88;;;5.48;100.00
67697;BME280;54486;51.442;6.778;2023-02-22T05:11:25;101173.13;;;5.49;100.00
67697;BME280;54486;51.442;6.778;2023-02-22T05:13:52;101178.25;;;5.46;100.00
67697;BME280;54486;51.442;6.778;2023-02-22T05:16:18;101171.34;;;5.47;100.00
67697;BME280;54486;51.442;6.778;2023-02-22T05:18:45;101171.47;;;5.51;100.00
67697;BME280;54486;51.442;6.778;2023-02-22T05:21:13;101174.06;;;5.53;100.00
67697;BME280;54486;51.442;6.778;2023-02-22T05:23:42;101178.41;;;5.55;100.00
67697;BME280;54486;51.442;6.778;2023-02-22T05:26:11;101174.88;;;5.50;100.00
67697;BME280;54486;51.442;6.778;2023-02-22T05:28:38;101171.47;;;5.51;100.00
67697;BME280;54486;51.442;6.778;2023-02-22T05:31:06;101160.31;;;5.55;100.00
67697;BME280;54486;51.442;6.778;2023-02-22T05:33:36;101167.16;;;5.52;100.00
67697;BME280;54486;51.442;6.778;2023-02-22T05:36:05;101161.16;;;5.54;100.00
67697;BME280;54486;51.442;6.778;2023-02-22T05:38:35;101153.34;;;5.53;100.00
67697;BME280;54486;51.442;6.778;2023-02-22T05:41:09;101159.53;;;5.59;100.00
67697;BME280;54486;51.442;6.778;2023-02-22T05:43:37;101154.34;;;5.59;100.00
67697;BME280;54486;51.442;6.778;2023-02-22T05:46:05;101150.94;;;5.60;100.00
67697;BME280;54486;51.442;6.778;2023-02-22T05:48:32;101152.69;;;5.61;100.00
67697;BME280;54486;51.442;6.778;2023-02-22T05:51:04;101155.22;;;5.60;100.00
67697;BME280;54486;51.442;6.778;2023-02-22T05:53:34;101151.75;;;5.59;100.00
67697;BME280;54486;51.442;6.778;2023-02-22T05:56:06;101154.25;;;5.53;100.00
67697;BME280;54486;51.442;6.778;2023-02-22T05:58:34;101150.81;;;5.54;100.00
67697;BME280;54486;51.442;6.778;2023-02-22T06:01:01;101143.94;;;5.56;100.00
67697;BME280;54486;51.442;6.778;2023-02-22T06:03:29;101150.81;;;5.54;100.00
67697;BME280;54486;51.442;6.778;2023-02-22T06:05:58;101154.34;;;5.59;100.00
67697;BME280;54486;51.442;6.778;2023-02-22T06:08:27;101151.75;;;5.58;100.00
67697;BME280;54486;51.442;6.778;2023-02-22T06:10:54;101154.34;;;5.59;100.00
67697;BME280;54486;51.442;6.778;2023-02-22T06:13:21;101151.03;;;5.66;100.00
67697;BME280;54486;51.442;6.778;2023-02-22T06:15:50;101149.16;;;5.59;100.00
67697;BME280;54486;51.442;6.778;2023-02-22T06:18:17;101143.22;;;5.63;100.00
67697;BME280;54486;51.442;6.778;2023-02-22T06:20:46;101145.91;;;5.69;100.00
67697;BME280;54486;51.442;6.778;2023-02-22T06:23:18;101144.09;;;5.65;100.00
67697;BME280;54486;51.442;6.778;2023-02-22T06:25:48;101139.78;;;5.64;100.00
67697;BME280;54486;51.442;6.778;2023-02-22T06:28:15;101136.91;;;5.49;100.00
67697;BME280;54486;51.442;6.778;2023-02-22T06:30:42;101135.16;;;5.48;100.00
67697;BME280;54486;51.442;6.778;2023-02-22T06:33:11;101135.16;;;5.48;100.00
67697;BME280;54486;51.442;6.778;2023-02-22T06:35:37;101138.66;;;5.50;100.00
67697;BME280;54486;51.442;6.778;2023-02-22T06:38:04;101130.09;;;5.54;100.00
67697;BME280;54486;51.442;6.778;2023-02-22T06:40:34;101131.91;;;5.58;100.00
67697;BME280;54486;51.442;6.778;2023-02-22T06:43:02;101133.63;;;5.58;100.00
67697;BME280;54486;51.442;6.778;2023-02-22T06:45:29;101131.00;;;5.56;100.00
67697;BME280;54486;51.442;6.778;2023-02-22T06:47:57;101136.22;;;5.58;100.00
67697;BME280;54486;51.442;6.778;2023-02-22T06:50:25;101131.97;;;5.61;100.00
67697;BME280;54486;51.442;6.778;2023-02-22T06:52:54;101130.31;;;5.66;100.00
67697;BME280;54486;51.442;6.778;2023-02-22T06:55:23;101125.09;;;5.63;100.00
67697;BME280;54486;51.442;6.778;2023-02-22T06:57:51;101132.88;;;5.63;100.00
67697;BME280;54486;51.442;6.778;2023-02-22T07:00:18;101132.13;;;5.70;100.00
67697;BME280;54486;51.442;6.778;2023-02-22T07:02:46;101132.19;;;5.73;100.00
67697;BME280;54486;51.442;6.778;2023-02-22T07:05:14;101126.84;;;5.64;100.00
67697;BME280;54486;51.442;6.778;2023-02-22T07:07:42;101138.25;;;5.74;100.00
67697;BME280;54486;51.442;6.778;2023-02-22T07:10:15;101130.41;;;5.71;100.00
67697;BME280;54486;51.442;6.778;2023-02-22T07:12:42;101137.38;;;5.73;100.00
67697;BME280;54486;51.442;6.778;2023-02-22T07:15:09;101132.25;;;5.76;100.00
67697;BME280;54486;51.442;6.778;2023-02-22T07:17:36;101140.03;;;5.78;100.00
67697;BME280;54486;51.442;6.778;2023-02-22T07:20:03;101128.72;;;5.74;100.00
67697;BME280;54486;51.442;6.778;2023-02-22T07:22:30;101125.34;;;5.78;100.00
67697;BME280;54486;51.442;6.778;2023-02-22T07:24:59;101126.28;;;5.80;100.00
67697;BME280;54486;51.442;6.778;2023-02-22T07:27:26;101127.16;;;5.82;100.00
67697;BME280;54486;51.442;6.778;2023-02-22T07:29:53;101128.13;;;5.88;100.00
67697;BME280;54486;51.442;6.778;2023-02-22T07:32:20;101129.97;;;5.93;100.00
67697;BME280;54486;51.442;6.778;2023-02-22T07:34:47;101133.41;;;5.94;100.00
67697;BME280;54486;51.442;6.778;2023-02-22T07:37:14;101125.75;;;5.98;100.00
67697;BME280;54486;51.442;6.778;2023-02-22T07:39:44;101118.03;;;6.01;100.00
67697;BME280;54486;51.442;6.778;2023-02-22T07:42:11;101124.13;;;6.05;100.00
67697;BME280;54486;51.442;6.778;2023-02-22T07:44:38;101120.75;;;6.09;100.00
67697;BME280;54486;51.442;6.778;2023-02-22T07:47:05;101120.78;;;6.12;100.00
67697;BME280;54486;51.442;6.778;2023-02-22T07:49:32;101119.09;;;6.14;100.00
67697;BME280;54486;51.442;6.778;2023-02-22T07:51:59;101115.75;;;6.21;100.00
67697;BME280;54486;51.442;6.778;2023-02-22T07:54:25;101108.91;;;6.26;100.00
67697;BME280;54486;51.442;6.778;2023-02-22T07:56:52;101110.75;;;6.33;100.00
67697;BME280;54486;51.442;6.778;2023-02-22T07:59:19;101112.59;;;6.40;100.00
67697;BME280;54486;51.442;6.778;2023-02-22T08:01:48;101103.19;;;6.48;100.00
67697;BME280;54486;51.442;6.778;2023-02-22T08:04:16;101112.75;;;6.52;100.00
67697;BME280;54486;51.442;6.778;2023-02-22T08:06:46;101105.06;;;6.57;100.00
67697;BME280;54486;51.442;6.778;2023-02-22T08:09:15;101106.78;;;6.58;100.00
67697;BME280;54486;51.442;6.778;2023-02-22T08:11:42;101110.28;;;6.61;100.00
67697;BME280;54486;51.442;6.778;2023-02-22T08:14:09;101107.81;;;6.70;100.00
67697;BME280;54486;51.442;6.778;2023-02-22T08:16:36;101109.63;;;6.74;100.00
67697;BME280;54486;51.442;6.778;2023-02-22T08:19:06;101101.91;;;6.79;100.00
67697;BME280;54486;51.442;6.778;2023-02-22T08:21:33;101098.53;;;6.84;100.00
67697;BME280;54486;51.442;6.778;2023-02-22T08:24:00;101098.59;;;6.89;100.00
67697;BME280;54486;51.442;6.778;2023-02-22T08:26:27;101092.56;;;6.91;100.00
67697;BME280;54486;51.442;6.778;2023-02-22T08:28:54;101091.69;;;6.92;100.00
67697;BME280;54486;51.442;6.778;2023-02-22T08:31:20;101088.31;;;7.00;100.00
67697;BME280;54486;51.442;6.778;2023-02-22T08:33:48;101088.41;;;7.06;100.00
67697;BME280;54486;51.442;6.778;2023-02-22T08:36:15;101094.50;;;7.08;100.00
67697;BME280;54486;51.442;6.778;2023-02-22T08:38:45;101092.84;;;7.16;100.00
67697;BME280;54486;51.442;6.778;2023-02-22T08:41:13;101079.06;;;7.20;100.00
67697;BME280;54486;51.442;6.778;2023-02-22T08:43:43;101087.72;;;7.22;100.00
67697;BME280;54486;51.442;6.778;2023-02-22T08:46:17;101084.31;;;7.26;100.00
67697;BME280;54486;51.442;6.778;2023-02-22T08:48:51;101092.16;;;7.30;100.00
67697;BME280;54486;51.442;6.778;2023-02-22T08:51:18;101086.13;;;7.33;100.00
67697;BME280;54486;51.442;6.778;2023-02-22T08:53:46;101086.19;;;7.39;100.00
67697;BME280;54486;51.442;6.778;2023-02-22T08:56:13;101087.97;;;7.44;100.00
67697;BME280;54486;51.442;6.778;2023-02-22T08:58:40;101088.06;;;7.52;100.00
67697;BME280;54486;51.442;6.778;2023-02-22T09:01:07;101081.19;;;7.60;100.00
67697;BME280;54486;51.442;6.778;2023-02-22T09:03:36;101075.25;;;7.69;100.00
67697;BME280;54486;51.442;6.778;2023-02-22T09:06:04;101072.66;;;7.73;100.00
67697;BME280;54486;51.442;6.778;2023-02-22T09:08:32;101071.81;;;7.76;100.00
67697;BME280;54486;51.442;6.778;2023-02-22T09:10:59;101071.03;;;7.84;100.00
67697;BME280;54486;51.442;6.778;2023-02-22T09:13:26;101071.13;;;7.96;100.00
67697;BME280;54486;51.442;6.778;2023-02-22T09:15:53;101075.47;;;7.96;100.00
67697;BME280;54486;51.442;6.778;2023-02-22T09:18:20;101070.34;;;8.05;100.00
67697;BME280;54486;51.442;6.778;2023-02-22T09:20:47;101067.78;;;8.10;100.00
67697;BME280;54486;51.442;6.778;2023-02-22T09:23:14;101063.53;;;8.24;100.00
67697;BME280;54486;51.442;6.778;2023-02-22T09:25:41;101063.63;;;8.31;100.00
67697;BME280;54486;51.442;6.778;2023-02-22T09:28:08;101063.69;;;8.40;100.00
67697;BME280;54486;51.442;6.778;2023-02-22T09:30:35;101065.47;;;8.47;100.00
67697;BME280;54486;51.442;6.778;2023-02-22T09:33:10;101066.38;;;8.57;100.00
67697;BME280;54486;51.442;6.778;2023-02-22T09:35:40;101057.78;;;8.67;100.00
67697;BME280;54486;51.442;6.778;2023-02-22T09:38:13;101066.44;;;8.69;100.00
67697;BME280;54486;51.442;6.778;2023-02-22T09:40:42;101060.41;;;8.81;100.00
67697;BME280;54486;51.442;6.778;2023-02-22T09:48:24;101059.66;;;9.08;98.98
67697;BME280;54486;51.442;6.778;2023-02-22T09:50:52;101056.22;;;9.21;98.79
67697;BME280;54486;51.442;6.778;2023-02-22T09:53:29;101051.91;;;9.33;98.65
67697;BME280;54486;51.442;6.778;2023-02-22T09:56:08;101058.00;;;9.41;97.27
67697;BME280;54486;51.442;6.778;2023-02-22T09:58:40;101057.16;;;9.50;96.79
67697;BME280;54486;51.442;6.778;2023-02-22T10:04:07;101051.09;;;9.66;94.87
67697;BME280;54486;51.442;6.778;2023-02-22T10:06:40;101051.09;;;9.81;94.50
67697;BME280;54486;51.442;6.778;2023-02-22T10:09:08;101045.88;;;9.93;93.66
67697;BME280;54486;51.442;6.778;2023-02-22T10:25:17;101024.94;;;10.55;90.13
67697;BME280;54486;51.442;6.778;2023-02-22T10:27:51;101021.38;;;10.73;87.84
67697;BME280;54486;51.442;6.778;2023-02-22T10:30:22;101017.00;;;10.83;87.86
67697;BME280;54486;51.442;6.778;2023-02-22T10:33:03;101026.53;;;10.88;87.66
67697;BME280;54486;51.442;6.778;2023-02-22T10:35:34;101015.19;;;10.97;86.92
67697;BME280;54486;51.442;6.778;2023-02-22T10:38:10;101012.53;;;11.04;86.55
67697;BME280;54486;51.442;6.778;2023-02-22T10:41:30;101005.50;;;11.15;86.12
67697;BME280;54486;51.442;6.778;2023-02-22T10:43:31;101001.94;;;11.32;82.30
67697;BME280;54486;51.442;6.778;2023-02-22T10:46:03;100998.38;;;11.40;81.64
67697;BME280;54486;51.442;6.778;2023-02-22T10:48:31;101002.66;;;11.50;81.95
67697;BME280;54486;51.442;6.778;2023-02-22T10:51:01;101000.03;;;11.55;81.48
67697;BME280;54486;51.442;6.778;2023-02-22T10:53:29;100982.53;;;11.63;79.60
67697;BME280;54486;51.442;6.778;2023-02-22T10:58:48;100987.53;;;11.93;74.56
67697;BME280;54486;51.442;6.778;2023-02-22T11:01:19;100976.97;;;12.02;75.59
67697;BME280;54486;51.442;6.778;2023-02-22T11:03:59;100971.63;;;12.11;76.27
67697;BME280;54486;51.442;6.778;2023-02-22T11:06:27;100981.13;;;12.20;74.39
67697;BME280;54486;51.442;6.778;2023-02-22T11:09:02;100976.66;;;12.30;74.79
67697;BME280;54486;51.442;6.778;2023-02-22T11:11:30;100983.56;;;12.37;73.17
67697;BME280;54486;51.442;6.778;2023-02-22T11:13:57;100975.63;;;12.43;73.15
67697;BME280;54486;51.442;6.778;2023-02-22T11:16:28;100973.75;;;12.57;71.60
67697;BME280;54486;51.442;6.778;2023-02-22T11:21:26;100965.81;;;12.63;71.19
67697;BME280;54486;51.442;6.778;2023-02-22T11:24:03;100962.19;;;12.70;71.14
67697;BME280;54486;51.442;6.778;2023-02-22T11:26:35;100967.38;;;12.76;71.67
67697;BME280;54486;51.442;6.778;2023-02-22T11:29:08;100965.56;;;12.81;71.66
67697;BME280;54486;51.442;6.778;2023-02-22T11:31:44;100962.06;;;12.82;70.00
67697;BME280;54486;51.442;6.778;2023-02-22T11:34:32;100964.41;;;12.99;67.94
67697;BME280;54486;51.442;6.778;2023-02-22T11:42:33;100964.41;;;13.00;67.87
67697;BME280;54486;51.442;6.778;2023-02-22T11:45:14;100958.28;;;13.01;67.38
67697;BME280;54486;51.442;6.778;2023-02-22T11:50:19;100949.34;;;13.17;66.97
67697;BME280;54486;51.442;6.778;2023-02-22T11:52:49;100952.75;;;13.22;67.74
67697;BME280;54486;51.442;6.778;2023-02-22T11:55:24;100942.22;;;13.25;67.26
67697;BME280;54486;51.442;6.778;2023-02-22T12:04:20;100933.84;;;13.57;67.54
67697;BME280;54486;51.442;6.778;2023-02-22T12:09:02;100928.69;;;13.53;66.43
67697;BME280;54486;51.442;6.778;2023-02-22T12:11:34;100929.34;;;13.65;64.47
67697;BME280;54486;51.442;6.778;2023-02-22T12:16:55;100929.03;;;13.82;63.33
67697;BME280;54486;51.442;6.778;2023-02-22T12:19:34;100926.97;;;13.98;62.96
67697;BME280;54486;51.442;6.778;2023-02-22T12:22:06;100921.66;;;14.02;62.28
67697;BME280;54486;51.442;6.778;2023-02-22T12:24:40;100918.16;;;14.03;62.29
67697;BME280;54486;51.442;6.778;2023-02-22T12:27:22;100918.16;;;14.03;62.41
67697;BME280;54486;51.442;6.778;2023-02-22T12:32:39;100917.66;;;14.27;61.28
67697;BME280;54486;51.442;6.778;2023-02-22T12:35:16;100918.16;;;14.46;60.44
67697;BME280;54486;51.442;6.778;2023-02-22T12:43:26;100912.31;;;14.32;59.81
67697;BME280;54486;51.442;6.778;2023-02-22T12:53:55;100915.59;;;14.45;58.54
67697;BME280;54486;51.442;6.778;2023-02-22T12:56:33;100913.59;;;14.56;59.19
67697;BME280;54486;51.442;6.778;2023-02-22T13:01:39;100909.19;;;14.56;59.97
67697;BME280;54486;51.442;6.778;2023-02-22T13:04:08;100913.50;;;14.59;59.04
67697;BME280;54486;51.442;6.778;2023-02-22T13:09:32;100904.63;;;14.66;59.01
67697;BME280;54486;51.442;6.778;2023-02-22T13:12:11;100904.63;;;14.66;58.01
67697;BME280;54486;51.442;6.778;2023-02-22T13:25:17;100899.72;;;14.88;60.17
67697;BME280;54486;51.442;6.778;2023-02-22T13:27:52;100909.38;;;14.87;60.00
67697;BME280;54486;51.442;6.778;2023-02-22T13:30:36;100900.75;;;14.82;58.86
67697;BME280;54486;51.442;6.778;2023-02-22T13:43:33;100889.66;;;15.06;57.43
67697;BME280;54486;51.442;6.778;2023-02-22T13:49:08;100896.50;;;15.13;57.74
67697;BME280;54486;51.442;6.778;2023-02-22T13:51:55;100895.44;;;15.22;59.17
67697;BME280;54486;51.442;6.778;2023-02-22T13:54:25;100897.03;;;15.27;56.62
67697;BME280;54486;51.442;6.778;2023-02-22T13:56:56;100900.47;;;15.29;57.03
67697;BME280;54486;51.442;6.778;2023-02-22T13:59:28;100896.75;;;15.38;56.56
67697;BME280;54486;51.442;6.778;2023-02-22T14:01:56;100889.06;;;15.30;56.74
67697;BME280;54486;51.442;6.778;2023-02-22T14:06:57;100886.78;;;15.54;57.01
67697;BME280;54486;51.442;6.778;2023-02-22T14:15:16;100883.59;;;15.38;59.73
67697;BME280;54486;51.442;6.778;2023-02-22T14:17:59;100890.56;;;15.41;59.15
67697;BME280;54486;51.442;6.778;2023-02-22T14:20:33;100883.66;;;15.36;58.97
67697;BME280;54486;51.442;6.778;2023-02-22T14:25:48;100887.66;;;15.17;59.06
67697;BME280;54486;51.442;6.778;2023-02-22T14:28:32;100893.69;;;15.21;59.07
67697;BME280;54486;51.442;6.778;2023-02-22T14:31:03;100887.72;;;15.14;59.81
67697;BME280;54486;51.442;6.778;2023-02-22T14:36:31;100892.28;;;15.06;59.69
67697;BME280;54486;51.442;6.778;2023-02-22T14:39:22;100887.25;;;14.97;59.50
67697;BME280;54486;51.442;6.778;2023-02-22T14:41:49;100883.00;;;14.93;59.83
67697;BME280;54486;51.442;6.778;2023-02-22T14:44:22;100881.41;;;14.86;60.53
67697;BME280;54486;51.442;6.778;2023-02-22T14:46:49;100881.31;;;14.89;60.37
67697;BME280;54486;51.442;6.778;2023-02-22T14:49:18;100887.47;;;14.88;59.94
67697;BME280;54486;51.442;6.778;2023-02-22T14:51:50;100879.66;;;14.85;61.12
67697;BME280;54486;51.442;6.778;2023-02-22T14:54:25;100887.63;;;14.80;61.42
67697;BME280;54486;51.442;6.778;2023-02-22T14:56:59;100886.72;;;14.83;61.47
67697;BME280;54486;51.442;6.778;2023-02-22T15:00:00;100891.06;;;14.84;61.40
67697;BME280;54486;51.442;6.778;2023-02-22T15:02:38;100890.03;;;14.91;61.22
67697;BME280;54486;51.442;6.778;2023-02-22T15:05:11;100884.84;;;14.88;61.72
67697;BME280;54486;51.442;6.778;2023-02-22T15:07:39;100888.25;;;14.93;61.90
67697;BME280;54486;51.442;6.778;2023-02-22T15:12:54;100882.03;;;14.96;62.24
67697;BME280;54486;51.442;6.778;2023-02-22T15:15:39;100886.34;;;14.98;62.41
67697;BME280;54486;51.442;6.778;2023-02-22T15:20:45;100878.31;;;15.04;63.00
67697;BME280;54486;51.442;6.778;2023-02-22T15:23:14;100887.78;;;15.11;62.76
67697;BME280;54486;51.442;6.778;2023-02-22T15:25:45;100889.47;;;15.15;62.57
67697;BME280;54486;51.442;6.778;2023-02-22T15:28:13;100886.13;;;15.07;62.97